K7BM

Cottonwood Pass Airport

Cottonwood Pass, Colorado, USA
METAR K7BM 190629Z AUTO 29009G18KT 10SM CLR M06/M13 A3019 RMK AO2
Observed Flight Rules
Jan-19 @ 06:29 UTC (23 minutes ago) Visual Flight Rules
Wind Visibility Clouds
290° at 9 knots
 Gusting to 18 knots
10 miles
  • Clear skies
Temperatures Readings
Current -6°C / 21°F
Dewpoint -13°C / 9°F
Humidity 58%
Altimeter 30.19" Hg
Pressure 1022.32 hPa
Elevation 2995
METAR K7BM 190629Z AUTO 29009G18KT 10SM CLR M06/M13 A3019 RMK AO2
Observed Flight Rules
Jan-19 @ 06:29 UTC
(23 minutes ago)
VFR
Wind Visibility
290° at 9 knots
 Gusting to 18 knots
10 miles
Clouds
  • Clear skies
Temperature Dewpoint
-6°C / 21°F -13°C / 9°F
Humidity Altimeter Pressure
58% 30.19" Hg 1022.32 hPa